Terminal Aerodrome Forecast
Issued by NWS

Home | Current Version | Previous Version | Text Only | Print | Product List | Glossary On
Versions: 1 2 3 4 5 6 7 8 9 10 11 12 13 14 15 16 17 18 19
743
FTUS43 KSGF 201720
TAFJLN
TAF
KJLN 201720Z 2018/2118 20019G27KT P6SM SKC
     FM210000 19012KT P6SM FEW250
     FM211200 21008KT P6SM BKN200
     FM211600 27006KT P6SM SCT200
     FM211700 32007KT P6SM SCT200=

USA.gov is the U.S. government's official web portal to all federal, state and local government web resources and services.